createdAt,value
2018-04-22T00:01:29.669Z,44.03
2018-04-22T00:03:57.612Z,43.85
2018-04-22T00:06:25.740Z,43.77
2018-04-22T00:08:53.650Z,43.72
2018-04-22T00:11:21.751Z,43.91
2018-04-22T00:13:49.825Z,43.97
2018-04-22T00:16:17.737Z,44.07
2018-04-22T00:18:45.685Z,44.33
2018-04-22T00:21:13.675Z,44.38
2018-04-22T00:23:41.870Z,44.71
2018-04-22T00:26:10.310Z,44.91
2018-04-22T00:28:38.309Z,44.74
2018-04-22T00:31:06.319Z,44.92
2018-04-22T00:33:34.570Z,44.97
2018-04-22T00:36:02.483Z,45.23
2018-04-22T00:38:30.825Z,44.99
2018-04-22T00:40:58.853Z,44.92
2018-04-22T00:43:27.086Z,45.14
2018-04-22T00:45:55.871Z,45.43
2018-04-22T00:48:23.966Z,45.56
2018-04-22T00:50:52.509Z,45.82
2018-04-22T00:53:20.539Z,45.87
2018-04-22T00:55:48.821Z,45.95
2018-04-22T00:58:16.708Z,46.07
2018-04-22T01:00:44.803Z,46.21
2018-04-22T01:03:12.927Z,46.30
2018-04-22T01:05:40.986Z,46.44
2018-04-22T01:08:09.104Z,46.39
2018-04-22T01:10:37.210Z,46.40
2018-04-22T01:13:05.154Z,46.60
2018-04-22T01:15:33.196Z,46.31
2018-04-22T01:18:01.407Z,46.22
2018-04-22T01:20:29.448Z,46.31
2018-04-22T01:22:57.540Z,46.35
2018-04-22T01:25:26.234Z,46.29
2018-04-22T01:27:55.315Z,46.34
2018-04-22T01:30:23.178Z,46.50
2018-04-22T01:32:51.122Z,46.51
2018-04-22T01:35:19.195Z,46.59
2018-04-22T01:37:47.221Z,46.76
2018-04-22T01:40:15.354Z,46.76
2018-04-22T01:42:43.432Z,46.65
2018-04-22T01:45:11.480Z,46.59
2018-04-22T01:47:39.617Z,46.86
2018-04-22T01:50:07.903Z,46.74
2018-04-22T01:52:36.096Z,46.66
2018-04-22T01:55:04.069Z,46.37
2018-04-22T01:57:32.300Z,46.25
2018-04-22T02:00:00.579Z,46.47
2018-04-22T02:02:28.682Z,46.64
2018-04-22T02:04:56.718Z,46.80
2018-04-22T02:07:25.049Z,46.68
2018-04-22T02:09:53.574Z,46.86
2018-04-22T02:12:21.506Z,46.91
2018-04-22T02:14:49.387Z,46.70
2018-04-22T02:17:17.647Z,46.66
2018-04-22T02:19:45.549Z,46.40
2018-04-22T02:22:13.802Z,46.51
2018-04-22T02:24:41.896Z,46.40
2018-04-22T02:27:09.809Z,46.45
2018-04-22T02:29:38.130Z,46.35
2018-04-22T02:32:05.921Z,46.39
2018-04-22T02:34:33.942Z,46.27
2018-04-22T02:37:02.099Z,46.12
2018-04-22T02:39:30.764Z,46.06
2018-04-22T02:41:59.432Z,46.26
2018-04-22T02:44:27.416Z,46.25
2018-04-22T02:46:55.677Z,46.24
2018-04-22T02:49:23.701Z,46.02
2018-04-22T02:51:52.147Z,46.21
2018-04-22T02:54:20.256Z,46.24
2018-04-22T02:56:48.391Z,46.38
2018-04-22T02:59:16.414Z,46.38
2018-04-22T03:01:45.991Z,46.34
2018-04-22T03:04:14.082Z,46.51
2018-04-22T03:06:42.443Z,46.54
2018-04-22T03:09:10.442Z,46.24
2018-04-22T03:11:38.700Z,46.17
2018-04-22T03:14:07.171Z,46.22
2018-04-22T03:16:35.491Z,46.11
2018-04-22T03:19:03.972Z,45.95
2018-04-22T03:21:32.037Z,45.88
2018-04-22T03:24:00.095Z,45.93
2018-04-22T03:26:28.322Z,46.04
2018-04-22T03:28:56.892Z,45.99
2018-04-22T03:31:25.356Z,46.00
2018-04-22T03:33:53.249Z,46.02
2018-04-22T03:36:21.300Z,45.94
2018-04-22T03:38:49.494Z,45.91
2018-04-22T03:41:18.199Z,46.21
2018-04-22T03:43:47.629Z,46.30
2018-04-22T03:46:15.654Z,46.10
2018-04-22T03:48:43.454Z,45.98
2018-04-22T03:51:12.346Z,45.92
2018-04-22T03:53:40.905Z,46.11
2018-04-22T03:56:09.085Z,46.00
2018-04-22T03:58:37.506Z,46.09
2018-04-22T04:01:05.429Z,45.99
2018-04-22T04:03:34.299Z,46.10
2018-04-22T04:06:02.624Z,46.01
2018-04-22T04:08:31.295Z,45.84
2018-04-22T04:10:59.170Z,46.18
2018-04-22T04:13:27.454Z,46.16
2018-04-22T04:15:55.711Z,46.36
2018-04-22T04:18:53.750Z,46.58
2018-04-22T04:21:33.632Z,46.91
2018-04-22T04:27:35.488Z,46.90
2018-04-22T04:30:03.698Z,47.07
2018-04-22T04:32:31.846Z,47.12
2018-04-22T04:34:59.847Z,47.46
2018-04-22T04:37:28.290Z,47.65
2018-04-22T04:39:56.413Z,47.66
2018-04-22T04:42:24.450Z,47.77
2018-04-22T04:44:52.657Z,47.87
2018-04-22T04:47:20.875Z,48.09
2018-04-22T04:49:48.997Z,48.44
2018-04-22T04:52:17.024Z,48.29
2018-04-22T04:54:45.675Z,48.39
2018-04-22T04:57:13.745Z,48.46
2018-04-22T04:59:41.733Z,48.39
2018-04-22T05:02:09.679Z,47.89
2018-04-22T05:04:37.560Z,49.19
2018-04-22T05:07:05.823Z,48.66
2018-04-22T05:09:34.455Z,47.50
2018-04-22T05:12:02.599Z,47.44
2018-04-22T05:14:30.477Z,47.77
2018-04-22T05:16:58.939Z,47.12
2018-04-22T05:19:27.632Z,48.38
2018-04-22T05:21:55.861Z,47.39
2018-04-22T05:24:23.917Z,47.37
2018-04-22T05:26:51.799Z,47.63
2018-04-22T05:29:20.278Z,47.44
2018-04-22T05:31:48.430Z,48.25
2018-04-22T05:34:16.398Z,47.59
2018-04-22T05:36:44.683Z,47.45
2018-04-22T05:39:12.758Z,48.40
2018-04-22T05:41:40.861Z,48.93
2018-04-22T05:44:09.734Z,48.67
2018-04-22T05:46:37.981Z,47.88
2018-04-22T05:49:06.023Z,48.04
2018-04-22T05:51:34.243Z,48.91
2018-04-22T05:54:02.983Z,48.63
2018-04-22T05:56:31.074Z,49.38
2018-04-22T05:58:59.295Z,48.29
2018-04-22T06:01:27.223Z,48.92
2018-04-22T06:03:55.135Z,48.95
2018-04-22T06:06:23.128Z,48.49
2018-04-22T06:08:51.437Z,47.98
2018-04-22T06:11:19.732Z,48.72
2018-04-22T06:13:47.930Z,48.47
2018-04-22T06:16:16.422Z,47.83
2018-04-22T06:18:45.240Z,47.50
2018-04-22T06:21:13.175Z,47.13
2018-04-22T06:23:41.027Z,46.22
2018-04-22T06:26:08.806Z,45.83
2018-04-22T06:28:36.895Z,45.42
2018-04-22T06:31:04.934Z,45.34
2018-04-22T06:33:33.442Z,44.98
2018-04-22T06:36:01.623Z,44.73
2018-04-22T06:38:30.211Z,43.96
2018-04-22T06:40:58.787Z,43.14
2018-04-22T06:43:26.791Z,42.70
2018-04-22T06:45:55.218Z,42.64
2018-04-22T06:48:23.490Z,42.43
2018-04-22T06:50:51.753Z,41.82
2018-04-22T06:53:20.319Z,41.52
2018-04-22T06:55:49.034Z,41.27
2018-04-22T06:58:17.732Z,40.84
2018-04-22T07:00:46.619Z,40.64
2018-04-22T07:03:15.210Z,40.48
2018-04-22T07:05:43.907Z,40.78
2018-04-22T07:08:12.520Z,41.15
2018-04-22T07:10:41.316Z,41.07
2018-04-22T07:13:09.957Z,41.24
2018-04-22T07:15:38.773Z,40.49
2018-04-22T07:18:07.452Z,40.65
2018-04-22T07:20:35.701Z,40.25
2018-04-22T07:23:04.170Z,40.80
2018-04-22T07:25:33.154Z,40.91
2018-04-22T07:28:01.722Z,40.18
2018-04-22T07:30:30.064Z,39.06
2018-04-22T07:32:59.089Z,39.62
2018-04-22T07:35:27.605Z,40.28
2018-04-22T07:37:56.256Z,40.23
2018-04-22T07:40:25.137Z,40.16
2018-04-22T07:42:53.933Z,40.75
2018-04-22T07:45:22.837Z,39.93
2018-04-22T07:47:51.630Z,41.18
2018-04-22T07:50:20.430Z,40.35
2018-04-22T07:52:49.354Z,41.28
2018-04-22T07:55:17.868Z,41.53
2018-04-22T07:57:46.614Z,41.98
2018-04-22T08:00:15.339Z,40.93
2018-04-22T08:02:44.207Z,41.87
2018-04-22T08:05:12.996Z,41.27
2018-04-22T08:07:41.696Z,39.80
2018-04-22T08:10:10.580Z,39.28
2018-04-22T08:12:39.427Z,39.13
2018-04-22T08:15:08.142Z,39.47
2018-04-22T08:17:36.551Z,38.11
2018-04-22T08:20:05.038Z,39.07
2018-04-22T08:22:33.609Z,39.13
2018-04-22T08:25:02.284Z,39.97
2018-04-22T08:27:30.844Z,39.34
2018-04-22T08:29:59.415Z,39.25
2018-04-22T08:32:27.874Z,39.12
2018-04-22T08:34:56.538Z,39.30
2018-04-22T08:37:25.407Z,38.54
2018-04-22T08:39:54.125Z,39.17
2018-04-22T08:42:22.711Z,39.56
2018-04-22T08:44:51.110Z,40.30
2018-04-22T08:47:19.808Z,40.61
2018-04-22T08:49:48.495Z,40.04
2018-04-22T08:52:17.342Z,39.46
2018-04-22T08:54:46.155Z,40.28
2018-04-22T08:57:15.114Z,39.64
2018-04-22T08:59:43.627Z,39.73
2018-04-22T09:02:12.277Z,39.77
2018-04-22T09:04:40.773Z,39.41
2018-04-22T09:07:09.401Z,40.38
2018-04-22T09:09:38.086Z,38.81
2018-04-22T09:12:06.575Z,39.42
2018-04-22T09:14:35.225Z,39.94
2018-04-22T09:17:03.788Z,40.34
2018-04-22T09:19:32.240Z,40.44
2018-04-22T09:22:01.047Z,40.34
2018-04-22T09:24:29.311Z,40.49
2018-04-22T09:26:58.045Z,41.12
2018-04-22T09:29:26.724Z,41.40
2018-04-22T09:31:55.281Z,41.22
2018-04-22T09:34:24.172Z,40.96
2018-04-22T09:36:53.154Z,40.31
2018-04-22T09:39:22.066Z,40.32
2018-04-22T09:41:51.053Z,40.22
2018-04-22T09:44:19.763Z,40.24
2018-04-22T09:46:48.499Z,40.32
2018-04-22T09:49:16.969Z,41.11
2018-04-22T09:51:45.732Z,41.52
2018-04-22T09:54:14.614Z,40.31
2018-04-22T09:56:43.540Z,39.93
2018-04-22T09:59:12.417Z,39.15
2018-04-22T10:01:41.563Z,39.64
2018-04-22T10:04:11.319Z,39.15
2018-04-22T10:06:39.972Z,39.27
2018-04-22T10:09:08.774Z,39.49
2018-04-22T10:11:37.108Z,39.96
2018-04-22T10:14:05.915Z,39.65
2018-04-22T10:16:34.497Z,40.24
2018-04-22T10:19:03.359Z,39.18
2018-04-22T10:21:32.044Z,40.02
2018-04-22T10:24:00.322Z,40.21
2018-04-22T10:26:28.499Z,40.57
2018-04-22T10:28:57.058Z,40.98
2018-04-22T10:31:25.395Z,40.94
2018-04-22T10:33:53.766Z,40.50
2018-04-22T10:36:22.336Z,40.60
2018-04-22T10:38:51.233Z,38.89
2018-04-22T10:41:19.457Z,37.35
2018-04-22T10:43:48.049Z,36.09
2018-04-22T10:46:16.502Z,35.47
2018-04-22T10:48:45.163Z,34.81
2018-04-22T10:53:48.766Z,33.22
2018-04-22T10:56:17.213Z,33.56
2018-04-22T10:58:46.027Z,33.26
2018-04-22T11:01:14.458Z,34.13
2018-04-22T11:03:43.111Z,34.59
2018-04-22T11:06:11.518Z,35.04
2018-04-22T11:08:40.457Z,35.24
2018-04-22T11:11:09.039Z,35.55
2018-04-22T11:13:37.826Z,34.95
2018-04-22T11:16:06.748Z,33.75
2018-04-22T11:18:35.418Z,33.77
2018-04-22T11:21:04.740Z,33.79
2018-04-22T11:23:33.508Z,34.12
2018-04-22T11:26:02.100Z,34.03
2018-04-22T11:28:31.492Z,33.79
2018-04-22T11:31:00.424Z,33.16
2018-04-22T11:33:30.272Z,32.42
2018-04-22T11:35:59.274Z,32.75
2018-04-22T11:38:27.963Z,33.25
2018-04-22T11:40:56.869Z,32.98
2018-04-22T11:43:25.079Z,33.10
2018-04-22T11:45:53.779Z,33.88
2018-04-22T11:48:22.317Z,33.02
2018-04-22T11:50:52.910Z,33.03
2018-04-22T11:53:21.745Z,33.12
2018-04-22T11:55:50.538Z,33.18
2018-04-22T11:58:19.349Z,32.89
2018-04-22T12:00:48.005Z,32.54
2018-04-22T12:03:16.426Z,32.60
2018-04-22T12:05:46.015Z,32.21
2018-04-22T12:08:14.510Z,32.48
2018-04-22T12:10:43.318Z,32.59
2018-04-22T12:13:11.998Z,32.89
2018-04-22T12:15:40.693Z,33.18
2018-04-22T12:18:09.477Z,32.77
2018-04-22T12:20:38.173Z,32.17
2018-04-22T12:23:07.011Z,31.98
2018-04-22T12:25:35.472Z,31.04
2018-04-22T12:28:04.113Z,31.08
2018-04-22T12:30:32.971Z,31.06
2018-04-22T12:33:01.769Z,31.40
2018-04-22T12:35:30.287Z,31.69
2018-04-22T12:37:58.805Z,30.88
2018-04-22T12:40:27.289Z,30.20
2018-04-22T12:42:55.967Z,30.41
2018-04-22T12:45:24.870Z,31.59
2018-04-22T12:47:53.551Z,32.24
2018-04-22T12:50:22.351Z,32.61
2018-04-22T12:52:51.432Z,32.89
2018-04-22T12:55:20.491Z,33.27
2018-04-22T12:57:49.325Z,34.11
2018-04-22T13:00:18.101Z,33.74
2018-04-22T13:02:46.320Z,33.28
2018-04-22T13:05:15.033Z,32.47
2018-04-22T13:07:43.824Z,32.29
2018-04-22T13:10:12.615Z,31.73
2018-04-22T13:12:40.947Z,31.78
2018-04-22T13:15:09.286Z,32.13
2018-04-22T13:17:38.029Z,32.19
2018-04-22T13:20:06.538Z,31.83
2018-04-22T13:22:35.213Z,32.99
2018-04-22T13:25:03.606Z,31.53
2018-04-22T13:27:32.330Z,31.82
2018-04-22T13:30:03.744Z,31.54
2018-04-22T13:32:32.404Z,30.86
2018-04-22T13:35:00.596Z,31.25
2018-04-22T13:37:29.092Z,33.03
2018-04-22T13:39:57.736Z,31.70
2018-04-22T13:42:26.363Z,31.16
2018-04-22T13:44:54.910Z,31.47
2018-04-22T13:47:23.350Z,31.32
2018-04-22T13:49:52.421Z,31.97
2018-04-22T13:52:20.957Z,32.93
2018-04-22T13:54:49.699Z,32.57
2018-04-22T13:57:18.497Z,31.22
2018-04-22T13:59:47.101Z,30.59
2018-04-22T14:02:15.588Z,31.09
2018-04-22T14:04:43.865Z,32.09
2018-04-22T14:07:12.538Z,30.59
2018-04-22T14:09:40.914Z,30.04
2018-04-22T14:12:09.318Z,29.71
2018-04-22T14:14:38.265Z,29.93
2018-04-22T14:17:06.678Z,29.67
2018-04-22T14:19:35.769Z,29.32
2018-04-22T14:22:04.425Z,29.14
2018-04-22T14:24:33.642Z,28.92
2018-04-22T14:27:02.369Z,29.30
2018-04-22T14:29:30.874Z,29.87
2018-04-22T14:31:59.238Z,30.32
2018-04-22T14:34:29.146Z,31.55
2018-04-22T14:36:57.953Z,30.58
2018-04-22T14:39:26.423Z,30.90
2018-04-22T14:41:55.576Z,31.39
2018-04-22T14:44:36.074Z,31.58
2018-04-22T14:47:04.659Z,31.90
2018-04-22T14:49:33.359Z,31.19
2018-04-22T14:52:02.355Z,31.48
2018-04-22T14:54:32.111Z,31.29
2018-04-22T14:57:00.804Z,31.99
2018-04-22T14:59:29.381Z,32.30
2018-04-22T15:01:58.043Z,31.44
2018-04-22T15:04:26.725Z,32.36
2018-04-22T15:06:55.535Z,31.76
2018-04-22T15:09:23.857Z,33.02
2018-04-22T15:11:52.225Z,33.15
2018-04-22T15:14:21.124Z,33.17
2018-04-22T15:16:49.986Z,33.42
2018-04-22T15:19:18.466Z,31.90
2018-04-22T15:21:46.763Z,31.59
2018-04-22T15:24:15.178Z,31.12
2018-04-22T15:26:43.911Z,32.39
2018-04-22T15:29:12.493Z,33.81
2018-04-22T15:31:41.071Z,33.50
2018-04-22T15:34:10.365Z,32.71
2018-04-22T15:36:38.671Z,33.24
2018-04-22T15:39:07.408Z,33.89
2018-04-22T15:41:36.327Z,33.63
2018-04-22T15:44:04.977Z,33.87
2018-04-22T15:46:33.337Z,34.08
2018-04-22T15:49:02.945Z,34.13
2018-04-22T15:51:31.648Z,34.27
2018-04-22T15:54:00.849Z,34.50
2018-04-22T15:56:29.351Z,34.68
2018-04-22T15:58:59.592Z,34.72
2018-04-22T16:01:27.768Z,34.65
2018-04-22T16:03:56.777Z,34.65
2018-04-22T16:06:25.359Z,34.56
2018-04-22T16:08:53.791Z,35.26
2018-04-22T16:11:22.839Z,35.38
2018-04-22T16:13:51.576Z,35.24
2018-04-22T16:16:20.378Z,35.30
2018-04-22T16:18:49.168Z,35.38
2018-04-22T16:21:17.510Z,34.98
2018-04-22T16:23:45.961Z,35.40
2018-04-22T16:26:15.310Z,35.69
2018-04-22T16:28:43.953Z,34.70
2018-04-22T16:31:12.772Z,34.55
2018-04-22T16:33:43.415Z,34.42
2018-04-22T16:36:12.027Z,34.09
2018-04-22T16:38:40.878Z,34.07
2018-04-22T16:41:09.502Z,34.03
2018-04-22T16:43:39.079Z,34.43
2018-04-22T16:46:08.170Z,35.02
2018-04-22T16:48:36.554Z,35.58
2018-04-22T16:51:05.457Z,35.88
2018-04-22T16:53:34.369Z,35.85
2018-04-22T16:56:03.008Z,35.73
2018-04-22T16:58:33.341Z,34.91
2018-04-22T17:01:02.194Z,34.35
2018-04-22T17:03:31.446Z,33.89
2018-04-22T17:05:59.912Z,33.44
2018-04-22T17:08:28.283Z,32.95
2018-04-22T17:10:56.997Z,32.86
2018-04-22T17:13:26.001Z,32.91
2018-04-22T17:15:54.793Z,33.12
2018-04-22T17:18:23.400Z,33.17
2018-04-22T17:20:51.930Z,33.38
2018-04-22T17:23:20.530Z,33.15
2018-04-22T17:25:49.025Z,33.31
2018-04-22T17:28:17.769Z,33.50
2018-04-22T17:30:46.673Z,33.75
2018-04-22T17:33:18.550Z,34.16
2018-04-22T17:35:47.294Z,34.16
2018-04-22T17:38:16.296Z,34.30
2018-04-22T17:40:44.864Z,34.20
2018-04-22T17:43:13.191Z,34.12
2018-04-22T17:45:41.777Z,34.27
2018-04-22T17:48:14.699Z,34.12
2018-04-22T17:50:46.347Z,33.85
2018-04-22T17:53:14.997Z,33.79
2018-04-22T17:55:43.400Z,33.77
2018-04-22T17:58:12.140Z,33.88
2018-04-22T18:00:40.957Z,33.78
2018-04-22T18:03:09.609Z,33.91
2018-04-22T18:05:40.162Z,33.76
2018-04-22T18:08:08.617Z,33.85
2018-04-22T18:10:39.387Z,34.00
2018-04-22T18:13:09.473Z,34.17
2018-04-22T18:15:41.987Z,34.38
2018-04-22T18:18:10.758Z,34.48
2018-04-22T18:20:40.399Z,34.75
2018-04-22T18:23:10.120Z,34.91
2018-04-22T18:25:40.004Z,35.04
2018-04-22T18:28:09.173Z,35.27
2018-04-22T18:30:37.597Z,35.49
2018-04-22T18:33:06.380Z,35.51
2018-04-22T18:35:35.359Z,35.64
2018-04-22T18:38:04.015Z,35.82
2018-04-22T18:40:32.799Z,35.94
2018-04-22T18:43:01.580Z,36.01
2018-04-22T18:45:30.214Z,36.20
2018-04-22T18:47:59.217Z,36.44
2018-04-22T18:50:28.203Z,36.69
2018-04-22T18:52:56.930Z,36.78
2018-04-22T18:55:25.695Z,36.91
2018-04-22T18:57:54.166Z,37.08
2018-04-22T19:00:22.727Z,37.25
2018-04-22T19:02:51.569Z,37.23
2018-04-22T19:05:20.582Z,37.40
2018-04-22T19:07:49.095Z,37.53
2018-04-22T19:10:17.823Z,37.82
2018-04-22T19:12:46.727Z,37.90
2018-04-22T19:15:15.516Z,38.11
2018-04-22T19:17:44.416Z,38.26
2018-04-22T19:20:13.201Z,38.34
2018-04-22T19:22:41.612Z,38.47
2018-04-22T19:25:10.283Z,38.66
2018-04-22T19:27:38.790Z,38.84
2018-04-22T19:30:07.784Z,39.03
2018-04-22T19:32:36.364Z,39.14
2018-04-22T19:35:04.946Z,39.15
2018-04-22T19:37:33.173Z,39.37
2018-04-22T19:40:01.711Z,39.54
2018-04-22T19:42:30.643Z,39.34
2018-04-22T19:44:59.403Z,39.33
2018-04-22T19:47:28.018Z,39.52
2018-04-22T19:49:57.195Z,39.65
2018-04-22T19:52:25.656Z,39.36
2018-04-22T19:54:54.482Z,39.27
2018-04-22T19:57:23.066Z,39.38
2018-04-22T19:59:51.958Z,39.53
2018-04-22T20:02:20.633Z,39.89
2018-04-22T20:04:49.168Z,40.35
2018-04-22T20:07:17.642Z,40.58
2018-04-22T20:09:46.213Z,40.38
2018-04-22T20:12:15.663Z,40.40
2018-04-22T20:14:44.193Z,40.48
2018-04-22T20:17:13.098Z,40.47
2018-04-22T20:19:41.665Z,40.40
2018-04-22T20:22:10.553Z,40.67
2018-04-22T20:24:39.161Z,40.88
2018-04-22T20:27:08.038Z,40.91
2018-04-22T20:29:36.419Z,40.91
2018-04-22T20:32:05.250Z,40.96
2018-04-22T20:34:33.691Z,40.84
2018-04-22T20:37:02.397Z,40.81
2018-04-22T20:39:30.872Z,40.93
2018-04-22T20:41:59.293Z,41.09
2018-04-22T20:44:27.884Z,40.95
2018-04-22T20:46:56.666Z,41.22
2018-04-22T20:49:25.425Z,41.18
2018-04-22T20:51:54.336Z,41.23
2018-04-22T20:54:22.907Z,41.34
2018-04-22T20:56:51.361Z,41.38
2018-04-22T20:59:19.683Z,41.34
2018-04-22T21:01:48.369Z,41.55
2018-04-22T21:04:16.569Z,41.76
2018-04-22T21:06:45.452Z,41.79
2018-04-22T21:09:13.802Z,41.80
2018-04-22T21:11:42.587Z,41.67
2018-04-22T21:14:11.517Z,41.75
2018-04-22T21:16:39.996Z,41.66
2018-04-22T21:19:08.568Z,41.65
2018-04-22T21:21:37.123Z,41.73
2018-04-22T21:24:05.986Z,41.58
2018-04-22T21:26:34.961Z,41.44
2018-04-22T21:29:03.460Z,41.72
2018-04-22T21:31:31.819Z,41.39
2018-04-22T21:33:59.971Z,41.46
2018-04-22T21:36:28.508Z,41.65
2018-04-22T21:38:57.076Z,41.88
2018-04-22T21:41:25.162Z,41.63
2018-04-22T21:43:53.545Z,41.43
2018-04-22T21:46:21.476Z,41.92
2018-04-22T21:48:49.793Z,41.57
2018-04-22T21:51:18.592Z,41.45
2018-04-22T21:53:46.587Z,41.96
2018-04-22T21:56:14.839Z,41.98
2018-04-22T21:58:43.590Z,41.91
2018-04-22T22:01:11.737Z,42.28
2018-04-22T22:03:40.612Z,42.49
2018-04-22T22:06:08.778Z,42.33
2018-04-22T22:08:36.562Z,42.23
2018-04-22T22:11:04.435Z,42.44
2018-04-22T22:13:32.591Z,42.26
2018-04-22T22:16:00.473Z,42.23
2018-04-22T22:18:28.662Z,42.50
2018-04-22T22:20:56.858Z,42.30
2018-04-22T22:23:25.112Z,42.10
2018-04-22T22:25:54.216Z,41.97
2018-04-22T22:28:22.177Z,42.05
2018-04-22T22:30:50.253Z,42.20
2018-04-22T22:33:18.230Z,42.08
2018-04-22T22:35:46.948Z,42.10
2018-04-22T22:38:15.701Z,42.36
2018-04-22T22:40:43.880Z,42.38
2018-04-22T22:43:11.768Z,42.68
2018-04-22T22:45:39.834Z,42.65
2018-04-22T22:48:08.012Z,43.01
2018-04-22T22:50:35.906Z,43.17
2018-04-22T22:53:04.773Z,43.11
2018-04-22T22:55:33.159Z,43.01
2018-04-22T22:58:00.938Z,43.17
2018-04-22T23:00:28.798Z,43.34
2018-04-22T23:02:56.766Z,43.30
2018-04-22T23:05:24.900Z,42.94
2018-04-22T23:07:53.033Z,43.39
2018-04-22T23:10:20.926Z,43.30
2018-04-22T23:12:49.073Z,43.79
2018-04-22T23:15:16.965Z,43.68
2018-04-22T23:17:45.118Z,43.47
2018-04-22T23:20:13.004Z,43.68
2018-04-22T23:22:40.785Z,44.00
2018-04-22T23:25:09.032Z,43.61
2018-04-22T23:27:37.146Z,43.51
2018-04-22T23:30:05.300Z,43.43
2018-04-22T23:32:33.292Z,43.61
2018-04-22T23:35:01.451Z,43.75
2018-04-22T23:37:29.253Z,43.75
2018-04-22T23:39:57.133Z,43.96
2018-04-22T23:42:25.365Z,44.07
2018-04-22T23:44:53.151Z,44.55
2018-04-22T23:47:23.036Z,44.46
2018-04-22T23:49:51.045Z,44.38
2018-04-22T23:52:19.330Z,44.45
2018-04-22T23:54:47.317Z,44.56
2018-04-22T23:57:15.259Z,44.51
2018-04-22T23:59:43.833Z,44.26
